sensor_id;sensor_type;location;lat;lon;timestamp;P1;durP1;ratioP1;P2;durP2;ratioP2
10041;SDS011;5061;49.068;12.058;2022-10-31T00:01:42;6.77;;;4.43;;
10041;SDS011;5061;49.068;12.058;2022-10-31T00:05:02;5.47;;;4.27;;
10041;SDS011;5061;49.068;12.058;2022-10-31T00:08:23;9.10;;;3.57;;
10041;SDS011;5061;49.068;12.058;2022-10-31T00:11:44;5.50;;;3.77;;
10041;SDS011;5061;49.068;12.058;2022-10-31T00:15:04;4.30;;;3.20;;
10041;SDS011;5061;49.068;12.058;2022-10-31T00:18:25;3.90;;;2.70;;
10041;SDS011;5061;49.068;12.058;2022-10-31T00:21:45;5.23;;;2.40;;
10041;SDS011;5061;49.068;12.058;2022-10-31T00:25:06;4.43;;;2.87;;
10041;SDS011;5061;49.068;12.058;2022-10-31T00:28:27;2.57;;;2.37;;
10041;SDS011;5061;49.068;12.058;2022-10-31T00:31:50;2.23;;;2.03;;
10041;SDS011;5061;49.068;12.058;2022-10-31T00:35:12;2.57;;;2.37;;
10041;SDS011;5061;49.068;12.058;2022-10-31T00:38:33;2.80;;;1.90;;
10041;SDS011;5061;49.068;12.058;2022-10-31T00:41:53;2.40;;;2.20;;
10041;SDS011;5061;49.068;12.058;2022-10-31T00:45:14;2.53;;;2.13;;
10041;SDS011;5061;49.068;12.058;2022-10-31T00:48:34;2.40;;;2.20;;
10041;SDS011;5061;49.068;12.058;2022-10-31T00:51:55;3.90;;;1.67;;
10041;SDS011;5061;49.068;12.058;2022-10-31T00:55:16;2.50;;;2.30;;
10041;SDS011;5061;49.068;12.058;2022-10-31T00:58:36;3.57;;;2.97;;
10041;SDS011;5061;49.068;12.058;2022-10-31T01:01:57;6.03;;;3.40;;
10041;SDS011;5061;49.068;12.058;2022-10-31T01:05:17;3.60;;;2.93;;
10041;SDS011;5061;49.068;12.058;2022-10-31T01:08:38;3.83;;;2.70;;
10041;SDS011;5061;49.068;12.058;2022-10-31T01:11:59;1.90;;;1.80;;
10041;SDS011;5061;49.068;12.058;2022-10-31T01:15:20;2.40;;;2.13;;
10041;SDS011;5061;49.068;12.058;2022-10-31T01:18:42;2.10;;;1.90;;
10041;SDS011;5061;49.068;12.058;2022-10-31T01:22:03;3.10;;;2.80;;
10041;SDS011;5061;49.068;12.058;2022-10-31T01:25:24;2.80;;;2.60;;
10041;SDS011;5061;49.068;12.058;2022-10-31T01:28:49;2.30;;;2.00;;
10041;SDS011;5061;49.068;12.058;2022-10-31T01:32:12;1.83;;;1.53;;
10041;SDS011;5061;49.068;12.058;2022-10-31T01:35:32;3.10;;;1.93;;
10041;SDS011;5061;49.068;12.058;2022-10-31T01:38:55;1.73;;;1.63;;
10041;SDS011;5061;49.068;12.058;2022-10-31T01:42:18;1.57;;;1.47;;
10041;SDS011;5061;49.068;12.058;2022-10-31T01:45:40;2.10;;;1.90;;
10041;SDS011;5061;49.068;12.058;2022-10-31T01:49:05;1.33;;;1.23;;
10041;SDS011;5061;49.068;12.058;2022-10-31T01:52:38;1.63;;;1.43;;
10041;SDS011;5061;49.068;12.058;2022-10-31T01:56:02;1.60;;;1.50;;
10041;SDS011;5061;49.068;12.058;2022-10-31T01:59:24;1.70;;;1.60;;
10041;SDS011;5061;49.068;12.058;2022-10-31T02:02:49;2.80;;;2.10;;
10041;SDS011;5061;49.068;12.058;2022-10-31T02:06:13;2.77;;;2.27;;
10041;SDS011;5061;49.068;12.058;2022-10-31T02:09:45;2.13;;;1.80;;
10041;SDS011;5061;49.068;12.058;2022-10-31T02:13:07;3.00;;;2.20;;
10041;SDS011;5061;49.068;12.058;2022-10-31T02:16:29;1.70;;;1.60;;
10041;SDS011;5061;49.068;12.058;2022-10-31T02:34:22;1.37;;;1.27;;
10041;SDS011;5061;49.068;12.058;2022-10-31T02:37:56;1.90;;;1.80;;
10041;SDS011;5061;49.068;12.058;2022-10-31T02:45:00;1.60;;;1.50;;
10041;SDS011;5061;49.068;12.058;2022-10-31T02:48:40;1.53;;;1.43;;
10041;SDS011;5061;49.068;12.058;2022-10-31T02:52:14;1.40;;;1.30;;
10041;SDS011;5061;49.068;12.058;2022-10-31T02:59:04;1.83;;;1.50;;
10041;SDS011;5061;49.068;12.058;2022-10-31T03:16:57;2.40;;;1.70;;
10041;SDS011;5061;49.068;12.058;2022-10-31T03:20:23;2.20;;;2.00;;
10041;SDS011;5061;49.068;12.058;2022-10-31T03:23:48;2.03;;;1.83;;
10041;SDS011;5061;49.068;12.058;2022-10-31T03:27:12;2.00;;;1.80;;
10041;SDS011;5061;49.068;12.058;2022-10-31T03:30:36;2.03;;;1.83;;
10041;SDS011;5061;49.068;12.058;2022-10-31T03:34:00;1.90;;;1.80;;
10041;SDS011;5061;49.068;12.058;2022-10-31T03:37:22;1.53;;;1.43;;
10041;SDS011;5061;49.068;12.058;2022-10-31T03:40:45;1.90;;;1.70;;
10041;SDS011;5061;49.068;12.058;2022-10-31T03:44:09;2.13;;;1.90;;
10041;SDS011;5061;49.068;12.058;2022-10-31T03:47:34;2.27;;;1.80;;
10041;SDS011;5061;49.068;12.058;2022-10-31T03:58:03;1.83;;;1.73;;
10041;SDS011;5061;49.068;12.058;2022-10-31T04:01:31;2.30;;;2.07;;
10041;SDS011;5061;49.068;12.058;2022-10-31T04:04:55;2.97;;;2.23;;
10041;SDS011;5061;49.068;12.058;2022-10-31T04:08:17;2.60;;;2.10;;
10041;SDS011;5061;49.068;12.058;2022-10-31T04:11:42;2.63;;;2.37;;
10041;SDS011;5061;49.068;12.058;2022-10-31T04:15:09;2.83;;;2.20;;
10041;SDS011;5061;49.068;12.058;2022-10-31T04:18:30;1.90;;;1.77;;
10041;SDS011;5061;49.068;12.058;2022-10-31T04:21:51;2.10;;;1.90;;
10041;SDS011;5061;49.068;12.058;2022-10-31T04:25:11;2.20;;;2.00;;
10041;SDS011;5061;49.068;12.058;2022-10-31T04:28:32;2.07;;;1.80;;
10041;SDS011;5061;49.068;12.058;2022-10-31T04:31:53;3.10;;;2.20;;
10041;SDS011;5061;49.068;12.058;2022-10-31T04:35:14;1.70;;;1.60;;
10041;SDS011;5061;49.068;12.058;2022-10-31T04:38:35;1.83;;;1.57;;
10041;SDS011;5061;49.068;12.058;2022-10-31T04:41:56;2.40;;;2.10;;
10041;SDS011;5061;49.068;12.058;2022-10-31T04:45:16;1.40;;;1.30;;
10041;SDS011;5061;49.068;12.058;2022-10-31T04:48:37;1.60;;;1.50;;
10041;SDS011;5061;49.068;12.058;2022-10-31T04:51:58;1.50;;;1.40;;
10041;SDS011;5061;49.068;12.058;2022-10-31T04:55:18;3.70;;;1.97;;
10041;SDS011;5061;49.068;12.058;2022-10-31T04:58:39;1.70;;;1.60;;
10041;SDS011;5061;49.068;12.058;2022-10-31T05:02:00;1.70;;;1.60;;
10041;SDS011;5061;49.068;12.058;2022-10-31T05:05:23;2.00;;;1.53;;
10041;SDS011;5061;49.068;12.058;2022-10-31T05:08:46;1.33;;;1.23;;
10041;SDS011;5061;49.068;12.058;2022-10-31T05:12:06;1.43;;;1.33;;
10041;SDS011;5061;49.068;12.058;2022-10-31T05:15:27;1.40;;;1.20;;
10041;SDS011;5061;49.068;12.058;2022-10-31T05:18:48;1.63;;;1.47;;
10041;SDS011;5061;49.068;12.058;2022-10-31T05:22:09;1.20;;;1.10;;
10041;SDS011;5061;49.068;12.058;2022-10-31T05:25:29;2.17;;;1.73;;
10041;SDS011;5061;49.068;12.058;2022-10-31T05:28:50;1.93;;;1.83;;
10041;SDS011;5061;49.068;12.058;2022-10-31T05:32:10;2.23;;;1.87;;
10041;SDS011;5061;49.068;12.058;2022-10-31T05:35:31;1.80;;;1.70;;
10041;SDS011;5061;49.068;12.058;2022-10-31T05:38:52;1.73;;;1.63;;
10041;SDS011;5061;49.068;12.058;2022-10-31T05:42:13;1.77;;;1.67;;
10041;SDS011;5061;49.068;12.058;2022-10-31T05:45:33;2.30;;;1.50;;
10041;SDS011;5061;49.068;12.058;2022-10-31T05:48:54;1.80;;;1.70;;
10041;SDS011;5061;49.068;12.058;2022-10-31T05:52:14;1.37;;;1.27;;
10041;SDS011;5061;49.068;12.058;2022-10-31T05:55:35;1.47;;;1.37;;
10041;SDS011;5061;49.068;12.058;2022-10-31T05:58:56;2.03;;;1.77;;
10041;SDS011;5061;49.068;12.058;2022-10-31T06:02:16;1.50;;;1.40;;
10041;SDS011;5061;49.068;12.058;2022-10-31T06:05:37;1.37;;;1.27;;
10041;SDS011;5061;49.068;12.058;2022-10-31T06:08:57;1.50;;;1.40;;
10041;SDS011;5061;49.068;12.058;2022-10-31T06:12:18;1.10;;;1.00;;
10041;SDS011;5061;49.068;12.058;2022-10-31T06:15:38;1.23;;;1.13;;
10041;SDS011;5061;49.068;12.058;2022-10-31T06:19:00;1.17;;;1.07;;
10041;SDS011;5061;49.068;12.058;2022-10-31T06:22:21;0.90;;;0.90;;
10041;SDS011;5061;49.068;12.058;2022-10-31T06:25:42;1.13;;;1.00;;
10041;SDS011;5061;49.068;12.058;2022-10-31T06:29:02;1.50;;;1.40;;
10041;SDS011;5061;49.068;12.058;2022-10-31T06:32:23;2.00;;;1.50;;
10041;SDS011;5061;49.068;12.058;2022-10-31T06:35:47;1.30;;;1.20;;
10041;SDS011;5061;49.068;12.058;2022-10-31T06:39:07;1.53;;;1.43;;
10041;SDS011;5061;49.068;12.058;2022-10-31T06:42:28;1.20;;;1.10;;
10041;SDS011;5061;49.068;12.058;2022-10-31T06:45:48;1.40;;;1.30;;
10041;SDS011;5061;49.068;12.058;2022-10-31T06:49:09;1.40;;;1.30;;
10041;SDS011;5061;49.068;12.058;2022-10-31T06:52:30;1.57;;;1.47;;
10041;SDS011;5061;49.068;12.058;2022-10-31T06:55:50;1.40;;;1.30;;
10041;SDS011;5061;49.068;12.058;2022-10-31T06:59:11;1.50;;;1.40;;
10041;SDS011;5061;49.068;12.058;2022-10-31T07:02:31;1.53;;;1.40;;
10041;SDS011;5061;49.068;12.058;2022-10-31T07:05:52;1.50;;;1.40;;
10041;SDS011;5061;49.068;12.058;2022-10-31T07:09:15;1.40;;;1.30;;
10041;SDS011;5061;49.068;12.058;2022-10-31T07:12:36;1.60;;;1.30;;
10041;SDS011;5061;49.068;12.058;2022-10-31T07:16:00;1.27;;;1.17;;
10041;SDS011;5061;49.068;12.058;2022-10-31T07:19:25;1.13;;;1.03;;
10041;SDS011;5061;49.068;12.058;2022-10-31T07:22:46;1.27;;;1.17;;
10041;SDS011;5061;49.068;12.058;2022-10-31T07:26:07;1.13;;;1.03;;
10041;SDS011;5061;49.068;12.058;2022-10-31T07:29:29;1.17;;;1.07;;
10041;SDS011;5061;49.068;12.058;2022-10-31T07:32:50;1.40;;;1.20;;
10041;SDS011;5061;49.068;12.058;2022-10-31T07:36:16;1.40;;;1.30;;
10041;SDS011;5061;49.068;12.058;2022-10-31T07:39:37;1.33;;;1.23;;
10041;SDS011;5061;49.068;12.058;2022-10-31T07:42:58;1.00;;;1.00;;
10041;SDS011;5061;49.068;12.058;2022-10-31T07:46:18;1.37;;;1.27;;
10041;SDS011;5061;49.068;12.058;2022-10-31T07:49:39;1.20;;;1.10;;
10041;SDS011;5061;49.068;12.058;2022-10-31T07:56:24;0.80;;;0.80;;
10041;SDS011;5061;49.068;12.058;2022-10-31T07:59:44;1.40;;;1.30;;
10041;SDS011;5061;49.068;12.058;2022-10-31T08:03:06;1.20;;;1.10;;
10041;SDS011;5061;49.068;12.058;2022-10-31T08:06:31;1.30;;;1.00;;
10041;SDS011;5061;49.068;12.058;2022-10-31T08:09:52;1.30;;;1.20;;
10041;SDS011;5061;49.068;12.058;2022-10-31T08:13:13;1.10;;;1.00;;
10041;SDS011;5061;49.068;12.058;2022-10-31T08:16:34;1.50;;;1.30;;
10041;SDS011;5061;49.068;12.058;2022-10-31T08:19:54;1.50;;;1.40;;
10041;SDS011;5061;49.068;12.058;2022-10-31T08:23:15;1.20;;;1.10;;
10041;SDS011;5061;49.068;12.058;2022-10-31T08:26:36;1.40;;;1.30;;
10041;SDS011;5061;49.068;12.058;2022-10-31T08:29:56;1.40;;;1.30;;
10041;SDS011;5061;49.068;12.058;2022-10-31T08:33:18;1.30;;;1.20;;
10041;SDS011;5061;49.068;12.058;2022-10-31T08:36:39;1.30;;;1.20;;
10041;SDS011;5061;49.068;12.058;2022-10-31T08:39:59;1.37;;;1.27;;
10041;SDS011;5061;49.068;12.058;2022-10-31T08:43:20;2.00;;;1.80;;
10041;SDS011;5061;49.068;12.058;2022-10-31T08:46:40;1.90;;;1.80;;
10041;SDS011;5061;49.068;12.058;2022-10-31T08:50:01;1.80;;;1.70;;
10041;SDS011;5061;49.068;12.058;2022-10-31T08:53:22;1.50;;;1.37;;
10041;SDS011;5061;49.068;12.058;2022-10-31T08:56:43;2.93;;;1.90;;
10041;SDS011;5061;49.068;12.058;2022-10-31T09:00:04;1.80;;;1.70;;
10041;SDS011;5061;49.068;12.058;2022-10-31T09:03:26;1.70;;;1.60;;
10041;SDS011;5061;49.068;12.058;2022-10-31T09:06:48;1.50;;;1.40;;
10041;SDS011;5061;49.068;12.058;2022-10-31T09:10:09;3.00;;;2.13;;
10041;SDS011;5061;49.068;12.058;2022-10-31T09:13:29;2.10;;;1.70;;
10041;SDS011;5061;49.068;12.058;2022-10-31T09:16:50;1.87;;;1.73;;
10041;SDS011;5061;49.068;12.058;2022-10-31T09:20:11;1.87;;;1.77;;
10041;SDS011;5061;49.068;12.058;2022-10-31T09:23:32;2.27;;;2.03;;
10041;SDS011;5061;49.068;12.058;2022-10-31T09:26:53;2.27;;;2.07;;
10041;SDS011;5061;49.068;12.058;2022-10-31T09:30:13;3.90;;;2.30;;
10041;SDS011;5061;49.068;12.058;2022-10-31T09:33:34;2.17;;;1.97;;
10041;SDS011;5061;49.068;12.058;2022-10-31T09:36:54;2.10;;;1.90;;
10041;SDS011;5061;49.068;12.058;2022-10-31T09:40:15;1.97;;;1.83;;
10041;SDS011;5061;49.068;12.058;2022-10-31T09:47:26;2.07;;;1.87;;
10041;SDS011;5061;49.068;12.058;2022-10-31T09:54:38;3.27;;;2.97;;
10041;SDS011;5061;49.068;12.058;2022-10-31T09:58:28;2.80;;;2.40;;
10041;SDS011;5061;49.068;12.058;2022-10-31T10:02:04;3.07;;;2.77;;
10041;SDS011;5061;49.068;12.058;2022-10-31T10:05:57;2.57;;;2.37;;
10041;SDS011;5061;49.068;12.058;2022-10-31T10:09:43;3.60;;;2.87;;
10041;SDS011;5061;49.068;12.058;2022-10-31T10:13:09;3.53;;;2.57;;
10041;SDS011;5061;49.068;12.058;2022-10-31T10:20:23;4.10;;;3.70;;
10041;SDS011;5061;49.068;12.058;2022-10-31T10:23:53;3.80;;;3.40;;
10041;SDS011;5061;49.068;12.058;2022-10-31T10:31:32;2.83;;;2.63;;
10041;SDS011;5061;49.068;12.058;2022-10-31T10:35:02;4.17;;;3.70;;
10041;SDS011;5061;49.068;12.058;2022-10-31T10:42:01;3.47;;;3.17;;
10041;SDS011;5061;49.068;12.058;2022-10-31T10:45:50;4.40;;;3.63;;
10041;SDS011;5061;49.068;12.058;2022-10-31T10:49:41;8.13;;;4.60;;
10041;SDS011;5061;49.068;12.058;2022-10-31T11:00:38;4.63;;;4.00;;
10041;SDS011;5061;49.068;12.058;2022-10-31T11:04:24;6.33;;;4.90;;
10041;SDS011;5061;49.068;12.058;2022-10-31T11:07:49;10.20;;;6.00;;
10041;SDS011;5061;49.068;12.058;2022-10-31T11:14:43;8.17;;;6.30;;
10041;SDS011;5061;49.068;12.058;2022-10-31T11:18:12;6.67;;;5.40;;
10041;SDS011;5061;49.068;12.058;2022-10-31T11:21:41;5.43;;;4.53;;
10041;SDS011;5061;49.068;12.058;2022-10-31T11:25:16;3.53;;;3.23;;
10041;SDS011;5061;49.068;12.058;2022-10-31T11:28:40;6.67;;;5.50;;
10041;SDS011;5061;49.068;12.058;2022-10-31T11:32:00;3.80;;;3.40;;
10041;SDS011;5061;49.068;12.058;2022-10-31T11:35:22;4.80;;;3.63;;
10041;SDS011;5061;49.068;12.058;2022-10-31T11:38:45;7.13;;;5.30;;
10041;SDS011;5061;49.068;12.058;2022-10-31T11:42:06;3.77;;;3.40;;
10041;SDS011;5061;49.068;12.058;2022-10-31T11:45:31;6.93;;;5.00;;
10041;SDS011;5061;49.068;12.058;2022-10-31T11:48:53;6.27;;;5.40;;
10041;SDS011;5061;49.068;12.058;2022-10-31T11:52:17;8.70;;;6.30;;
10041;SDS011;5061;49.068;12.058;2022-10-31T11:55:41;5.87;;;4.83;;
10041;SDS011;5061;49.068;12.058;2022-10-31T11:59:02;4.20;;;3.80;;
10041;SDS011;5061;49.068;12.058;2022-10-31T12:02:24;4.10;;;3.30;;
10041;SDS011;5061;49.068;12.058;2022-10-31T12:05:45;5.03;;;4.20;;
10041;SDS011;5061;49.068;12.058;2022-10-31T12:12:51;5.93;;;4.90;;
10041;SDS011;5061;49.068;12.058;2022-10-31T12:16:36;4.80;;;4.17;;
10041;SDS011;5061;49.068;12.058;2022-10-31T12:30:50;4.43;;;3.80;;
10041;SDS011;5061;49.068;12.058;2022-10-31T12:34:20;5.70;;;4.40;;
10041;SDS011;5061;49.068;12.058;2022-10-31T12:38:12;6.00;;;5.33;;
10041;SDS011;5061;49.068;12.058;2022-10-31T12:41:52;6.00;;;5.27;;
10041;SDS011;5061;49.068;12.058;2022-10-31T12:45:31;10.10;;;7.63;;
10041;SDS011;5061;49.068;12.058;2022-10-31T12:59:48;7.40;;;5.97;;
10041;SDS011;5061;49.068;12.058;2022-10-31T13:03:33;4.83;;;4.20;;
10041;SDS011;5061;49.068;12.058;2022-10-31T13:07:03;7.80;;;5.53;;
10041;SDS011;5061;49.068;12.058;2022-10-31T13:11:05;6.53;;;5.47;;
10041;SDS011;5061;49.068;12.058;2022-10-31T13:14:43;4.80;;;4.30;;
10041;SDS011;5061;49.068;12.058;2022-10-31T13:18:11;6.53;;;5.37;;
10041;SDS011;5061;49.068;12.058;2022-10-31T13:25:37;6.17;;;5.13;;
10041;SDS011;5061;49.068;12.058;2022-10-31T13:29:15;7.87;;;6.10;;
10041;SDS011;5061;49.068;12.058;2022-10-31T13:32:50;10.00;;;7.20;;
10041;SDS011;5061;49.068;12.058;2022-10-31T13:40:11;4.50;;;3.90;;
10041;SDS011;5061;49.068;12.058;2022-10-31T13:47:27;8.30;;;6.10;;
10041;SDS011;5061;49.068;12.058;2022-10-31T13:50:56;8.00;;;7.20;;
10041;SDS011;5061;49.068;12.058;2022-10-31T13:54:22;9.63;;;7.73;;
10041;SDS011;5061;49.068;12.058;2022-10-31T13:57:51;8.50;;;6.60;;
10041;SDS011;5061;49.068;12.058;2022-10-31T14:01:15;5.50;;;4.63;;
10041;SDS011;5061;49.068;12.058;2022-10-31T14:04:44;4.13;;;3.30;;
10041;SDS011;5061;49.068;12.058;2022-10-31T14:08:21;3.03;;;2.80;;
10041;SDS011;5061;49.068;12.058;2022-10-31T14:11:45;3.30;;;2.70;;
10041;SDS011;5061;49.068;12.058;2022-10-31T14:15:24;2.50;;;2.30;;
10041;SDS011;5061;49.068;12.058;2022-10-31T14:18:48;2.40;;;2.20;;
10041;SDS011;5061;49.068;12.058;2022-10-31T14:22:21;2.60;;;2.00;;
10041;SDS011;5061;49.068;12.058;2022-10-31T14:25:41;2.00;;;1.80;;
10041;SDS011;5061;49.068;12.058;2022-10-31T14:29:20;1.70;;;1.60;;
10041;SDS011;5061;49.068;12.058;2022-10-31T14:32:44;1.80;;;1.70;;
10041;SDS011;5061;49.068;12.058;2022-10-31T14:36:23;1.50;;;1.40;;
10041;SDS011;5061;49.068;12.058;2022-10-31T14:39:57;2.00;;;1.80;;
10041;SDS011;5061;49.068;12.058;2022-10-31T14:43:42;2.00;;;1.87;;
10041;SDS011;5061;49.068;12.058;2022-10-31T14:50:57;2.30;;;2.00;;
10041;SDS011;5061;49.068;12.058;2022-10-31T14:54:23;2.33;;;2.13;;
10041;SDS011;5061;49.068;12.058;2022-10-31T14:57:59;2.40;;;2.17;;
10041;SDS011;5061;49.068;12.058;2022-10-31T15:01:25;2.37;;;2.17;;
10041;SDS011;5061;49.068;12.058;2022-10-31T15:04:49;2.60;;;2.33;;
10041;SDS011;5061;49.068;12.058;2022-10-31T15:08:13;5.07;;;3.40;;
10041;SDS011;5061;49.068;12.058;2022-10-31T15:11:46;4.93;;;4.00;;
10041;SDS011;5061;49.068;12.058;2022-10-31T15:15:11;3.53;;;3.23;;
10041;SDS011;5061;49.068;12.058;2022-10-31T15:18:38;2.90;;;2.53;;
10041;SDS011;5061;49.068;12.058;2022-10-31T15:22:14;2.83;;;2.63;;
10041;SDS011;5061;49.068;12.058;2022-10-31T15:25:39;4.90;;;3.50;;
10041;SDS011;5061;49.068;12.058;2022-10-31T15:29:05;3.30;;;3.00;;
10041;SDS011;5061;49.068;12.058;2022-10-31T15:32:32;5.07;;;3.60;;
10041;SDS011;5061;49.068;12.058;2022-10-31T15:35:59;5.47;;;4.13;;
10041;SDS011;5061;49.068;12.058;2022-10-31T15:39:21;4.60;;;3.83;;
10041;SDS011;5061;49.068;12.058;2022-10-31T15:42:42;7.30;;;5.30;;
10041;SDS011;5061;49.068;12.058;2022-10-31T15:46:06;7.50;;;5.50;;
10041;SDS011;5061;49.068;12.058;2022-10-31T15:52:57;9.90;;;6.57;;
10041;SDS011;5061;49.068;12.058;2022-10-31T15:56:20;8.17;;;6.20;;
10041;SDS011;5061;49.068;12.058;2022-10-31T15:59:45;8.63;;;5.20;;
10041;SDS011;5061;49.068;12.058;2022-10-31T16:06:34;6.10;;;4.97;;
10041;SDS011;5061;49.068;12.058;2022-10-31T16:09:56;5.03;;;4.07;;
10041;SDS011;5061;49.068;12.058;2022-10-31T16:13:25;6.40;;;3.83;;
10041;SDS011;5061;49.068;12.058;2022-10-31T16:16:59;5.77;;;4.37;;
10041;SDS011;5061;49.068;12.058;2022-10-31T16:20:22;5.57;;;4.33;;
10041;SDS011;5061;49.068;12.058;2022-10-31T16:23:47;5.93;;;4.93;;
10041;SDS011;5061;49.068;12.058;2022-10-31T16:27:18;9.43;;;7.10;;
10041;SDS011;5061;49.068;12.058;2022-10-31T16:30:46;8.20;;;6.57;;
10041;SDS011;5061;49.068;12.058;2022-10-31T16:34:20;11.77;;;8.33;;
10041;SDS011;5061;49.068;12.058;2022-10-31T16:37:41;12.80;;;9.37;;
10041;SDS011;5061;49.068;12.058;2022-10-31T16:41:02;10.90;;;8.47;;
10041;SDS011;5061;49.068;12.058;2022-10-31T16:44:24;12.20;;;8.97;;
10041;SDS011;5061;49.068;12.058;2022-10-31T16:47:46;16.83;;;11.37;;
10041;SDS011;5061;49.068;12.058;2022-10-31T16:51:08;17.17;;;11.17;;
10041;SDS011;5061;49.068;12.058;2022-10-31T16:54:29;11.80;;;8.33;;
10041;SDS011;5061;49.068;12.058;2022-10-31T16:57:53;9.27;;;7.60;;
10041;SDS011;5061;49.068;12.058;2022-10-31T17:01:15;7.13;;;6.10;;
10041;SDS011;5061;49.068;12.058;2022-10-31T17:04:36;6.93;;;5.40;;
10041;SDS011;5061;49.068;12.058;2022-10-31T17:07:57;7.90;;;5.30;;
10041;SDS011;5061;49.068;12.058;2022-10-31T17:11:19;5.67;;;4.07;;
10041;SDS011;5061;49.068;12.058;2022-10-31T17:14:42;4.83;;;4.20;;
10041;SDS011;5061;49.068;12.058;2022-10-31T17:18:04;5.60;;;4.50;;
10041;SDS011;5061;49.068;12.058;2022-10-31T17:21:25;5.17;;;4.67;;
10041;SDS011;5061;49.068;12.058;2022-10-31T17:24:47;11.73;;;7.90;;
10041;SDS011;5061;49.068;12.058;2022-10-31T17:28:10;11.17;;;7.23;;
10041;SDS011;5061;49.068;12.058;2022-10-31T17:31:33;16.17;;;8.73;;
10041;SDS011;5061;49.068;12.058;2022-10-31T17:34:55;9.73;;;7.53;;
10041;SDS011;5061;49.068;12.058;2022-10-31T17:38:16;11.47;;;8.13;;
10041;SDS011;5061;49.068;12.058;2022-10-31T17:41:36;9.43;;;8.03;;
10041;SDS011;5061;49.068;12.058;2022-10-31T17:44:57;9.30;;;7.80;;
10041;SDS011;5061;49.068;12.058;2022-10-31T17:48:18;12.47;;;6.87;;
10041;SDS011;5061;49.068;12.058;2022-10-31T17:51:38;8.13;;;5.87;;
10041;SDS011;5061;49.068;12.058;2022-10-31T17:54:59;7.27;;;6.00;;
10041;SDS011;5061;49.068;12.058;2022-10-31T17:58:19;7.13;;;5.57;;
10041;SDS011;5061;49.068;12.058;2022-10-31T18:01:40;9.70;;;7.63;;
10041;SDS011;5061;49.068;12.058;2022-10-31T18:05:00;7.30;;;5.80;;
10041;SDS011;5061;49.068;12.058;2022-10-31T18:08:27;11.23;;;7.37;;
10041;SDS011;5061;49.068;12.058;2022-10-31T18:11:49;11.80;;;7.53;;
10041;SDS011;5061;49.068;12.058;2022-10-31T18:15:10;18.53;;;11.20;;
10041;SDS011;5061;49.068;12.058;2022-10-31T18:18:31;14.50;;;9.13;;
10041;SDS011;5061;49.068;12.058;2022-10-31T18:21:57;10.70;;;6.53;;
10041;SDS011;5061;49.068;12.058;2022-10-31T18:25:17;13.63;;;8.53;;
10041;SDS011;5061;49.068;12.058;2022-10-31T18:28:39;10.23;;;7.57;;
10041;SDS011;5061;49.068;12.058;2022-10-31T18:31:59;7.67;;;5.47;;
10041;SDS011;5061;49.068;12.058;2022-10-31T18:35:20;7.93;;;5.80;;
10041;SDS011;5061;49.068;12.058;2022-10-31T18:38:41;6.20;;;4.77;;
10041;SDS011;5061;49.068;12.058;2022-10-31T18:42:05;4.97;;;4.30;;
10041;SDS011;5061;49.068;12.058;2022-10-31T18:45:26;6.57;;;4.60;;
10041;SDS011;5061;49.068;12.058;2022-10-31T18:48:46;9.90;;;5.97;;
10041;SDS011;5061;49.068;12.058;2022-10-31T18:52:07;7.83;;;5.83;;
10041;SDS011;5061;49.068;12.058;2022-10-31T18:55:28;8.53;;;6.50;;
10041;SDS011;5061;49.068;12.058;2022-10-31T18:58:49;6.73;;;5.13;;
10041;SDS011;5061;49.068;12.058;2022-10-31T19:02:12;9.40;;;6.20;;
10041;SDS011;5061;49.068;12.058;2022-10-31T19:05:34;7.50;;;5.47;;
10041;SDS011;5061;49.068;12.058;2022-10-31T19:08:55;5.70;;;4.33;;
10041;SDS011;5061;49.068;12.058;2022-10-31T19:12:18;8.63;;;5.90;;
10041;SDS011;5061;49.068;12.058;2022-10-31T19:15:38;10.43;;;6.90;;
10041;SDS011;5061;49.068;12.058;2022-10-31T19:18:59;12.60;;;7.10;;
10041;SDS011;5061;49.068;12.058;2022-10-31T19:22:20;7.83;;;5.80;;
10041;SDS011;5061;49.068;12.058;2022-10-31T19:25:41;9.40;;;6.23;;
10041;SDS011;5061;49.068;12.058;2022-10-31T19:29:01;9.73;;;6.13;;
10041;SDS011;5061;49.068;12.058;2022-10-31T19:32:22;5.23;;;4.67;;
10041;SDS011;5061;49.068;12.058;2022-10-31T19:35:43;5.30;;;4.30;;
10041;SDS011;5061;49.068;12.058;2022-10-31T19:39:03;5.60;;;4.30;;
10041;SDS011;5061;49.068;12.058;2022-10-31T19:42:24;6.00;;;4.93;;
10041;SDS011;5061;49.068;12.058;2022-10-31T19:45:57;5.00;;;3.13;;
10041;SDS011;5061;49.068;12.058;2022-10-31T19:49:23;5.40;;;4.20;;
10041;SDS011;5061;49.068;12.058;2022-10-31T19:52:44;7.13;;;5.00;;
10041;SDS011;5061;49.068;12.058;2022-10-31T19:56:15;4.30;;;3.90;;
10041;SDS011;5061;49.068;12.058;2022-10-31T19:59:38;6.50;;;5.10;;
10041;SDS011;5061;49.068;12.058;2022-10-31T20:02:58;4.80;;;4.30;;
10041;SDS011;5061;49.068;12.058;2022-10-31T20:09:51;4.57;;;4.17;;
10041;SDS011;5061;49.068;12.058;2022-10-31T20:13:13;9.43;;;5.77;;
10041;SDS011;5061;49.068;12.058;2022-10-31T20:16:34;8.60;;;5.87;;
10041;SDS011;5061;49.068;12.058;2022-10-31T20:19:54;8.87;;;6.53;;
10041;SDS011;5061;49.068;12.058;2022-10-31T20:23:15;11.90;;;7.57;;
10041;SDS011;5061;49.068;12.058;2022-10-31T20:26:36;15.37;;;9.50;;
10041;SDS011;5061;49.068;12.058;2022-10-31T20:29:59;19.00;;;11.70;;
10041;SDS011;5061;49.068;12.058;2022-10-31T20:33:20;20.07;;;11.57;;
10041;SDS011;5061;49.068;12.058;2022-10-31T20:36:42;14.00;;;9.60;;
10041;SDS011;5061;49.068;12.058;2022-10-31T20:40:03;13.90;;;9.80;;
10041;SDS011;5061;49.068;12.058;2022-10-31T20:43:24;12.70;;;7.50;;
10041;SDS011;5061;49.068;12.058;2022-10-31T20:46:46;11.37;;;7.30;;
10041;SDS011;5061;49.068;12.058;2022-10-31T20:50:07;9.50;;;6.10;;
10041;SDS011;5061;49.068;12.058;2022-10-31T20:53:29;10.83;;;6.73;;
10041;SDS011;5061;49.068;12.058;2022-10-31T20:56:50;11.30;;;7.30;;
10041;SDS011;5061;49.068;12.058;2022-10-31T21:00:13;7.40;;;5.90;;
10041;SDS011;5061;49.068;12.058;2022-10-31T21:03:34;7.20;;;6.03;;
10041;SDS011;5061;49.068;12.058;2022-10-31T21:06:57;6.50;;;5.37;;
10041;SDS011;5061;49.068;12.058;2022-10-31T21:10:19;5.83;;;4.53;;
10041;SDS011;5061;49.068;12.058;2022-10-31T21:13:40;3.90;;;3.43;;
10041;SDS011;5061;49.068;12.058;2022-10-31T21:17:03;4.03;;;3.67;;
10041;SDS011;5061;49.068;12.058;2022-10-31T21:20:24;4.50;;;3.97;;
10041;SDS011;5061;49.068;12.058;2022-10-31T21:23:45;5.60;;;4.33;;
10041;SDS011;5061;49.068;12.058;2022-10-31T21:27:07;6.10;;;4.70;;
10041;SDS011;5061;49.068;12.058;2022-10-31T21:30:28;7.27;;;5.50;;
10041;SDS011;5061;49.068;12.058;2022-10-31T21:33:49;7.80;;;5.77;;
10041;SDS011;5061;49.068;12.058;2022-10-31T21:37:11;12.63;;;5.50;;
10041;SDS011;5061;49.068;12.058;2022-10-31T21:40:33;6.67;;;5.63;;
10041;SDS011;5061;49.068;12.058;2022-10-31T21:43:53;9.60;;;6.20;;
10041;SDS011;5061;49.068;12.058;2022-10-31T21:47:16;10.10;;;6.90;;
10041;SDS011;5061;49.068;12.058;2022-10-31T21:50:37;11.70;;;7.20;;
10041;SDS011;5061;49.068;12.058;2022-10-31T21:53:57;10.90;;;6.40;;
10041;SDS011;5061;49.068;12.058;2022-10-31T21:57:37;7.33;;;5.50;;
10041;SDS011;5061;49.068;12.058;2022-10-31T22:01:01;6.20;;;4.37;;
10041;SDS011;5061;49.068;12.058;2022-10-31T22:04:22;8.70;;;6.50;;
10041;SDS011;5061;49.068;12.058;2022-10-31T22:07:43;8.17;;;6.30;;
10041;SDS011;5061;49.068;12.058;2022-10-31T22:11:04;11.13;;;7.77;;
10041;SDS011;5061;49.068;12.058;2022-10-31T22:14:29;12.80;;;8.67;;
10041;SDS011;5061;49.068;12.058;2022-10-31T22:17:50;11.57;;;8.33;;
10041;SDS011;5061;49.068;12.058;2022-10-31T22:21:12;9.70;;;7.70;;
10041;SDS011;5061;49.068;12.058;2022-10-31T22:24:34;10.47;;;7.60;;
10041;SDS011;5061;49.068;12.058;2022-10-31T22:27:55;8.10;;;6.37;;
10041;SDS011;5061;49.068;12.058;2022-10-31T22:31:16;7.70;;;6.27;;
10041;SDS011;5061;49.068;12.058;2022-10-31T22:34:37;8.30;;;5.90;;